Time;durP1;ratioP1;P1;durP2;ratioP2;P2;SDS_P1;SDS_P2;PMS_P1;PMS_P2;Temp;Humidity;BMP_temperature;BMP_pressure;BME280_temperature;BME280_humidity;BME280_pressure;Samples;Min_cycle;Max_cycle;Signal;HPM_P1;HPM_P2
2022/06/25 00:02:31;;;;;;;16.58;10.02;;;;;;;19.85;97.45;94548.38;4991167;28;20208;-80
2022/06/25 00:07:56;;;;;;;14.32;9.77;;;;;;;19.90;96.58;94558.06;4993019;28;20191;-80
2022/06/25 00:10:32;;;;;;;15.48;10.23;;;;;;;19.65;96.43;94559.09;4991147;28;20202;-81
2022/06/25 00:13:41;;;;;;;13.75;9.68;;;;;;;19.46;98.42;94561.59;4990670;28;20215;-80
2022/06/25 00:16:12;;;;;;;14.98;8.85;;;;;;;19.31;99.79;94545.84;4987161;28;20259;-81
2022/06/25 00:18:47;;;;;;;18.38;9.02;;;;;;;19.27;100.00;94539.56;4991350;28;20227;-81
2022/06/25 00:21:21;;;;;;;13.32;8.68;;;;;;;19.28;99.96;94541.91;4987472;28;20229;-81
2022/06/25 00:23:59;;;;;;;13.75;8.40;;;;;;;19.27;99.89;94540.38;4991925;28;20214;-81
2022/06/25 00:26:33;;;;;;;18.35;9.02;;;;;;;19.34;100.00;94550.56;4992887;28;20205;-81
2022/06/25 00:29:09;;;;;;;12.10;9.90;;;;;;;19.39;100.00;94544.53;4990061;28;20712;-81
2022/06/25 00:31:43;;;;;;;14.05;10.00;;;;;;;19.43;100.00;94556.09;4988568;28;20231;-81
2022/06/25 00:34:17;;;;;;;17.05;10.10;;;;;;;19.45;100.00;94549.47;4989137;28;20744;-81
2022/06/25 00:36:49;;;;;;;19.98;10.23;;;;;;;19.38;100.00;94550.81;4985150;28;20215;-81
2022/06/25 00:39:21;;;;;;;17.77;10.95;;;;;;;19.40;100.00;94554.00;4986846;28;20239;-81
2022/06/25 00:41:59;;;;;;;25.63;11.93;;;;;;;19.32;100.00;94536.09;4988787;28;20203;-81
2022/06/25 00:44:37;;;;;;;20.77;11.98;;;;;;;19.34;100.00;94537.41;4988584;28;20203;-81
2022/06/25 00:47:11;;;;;;;17.98;11.85;;;;;;;19.27;100.00;94531.66;4986388;28;20211;-81
2022/06/25 00:49:47;;;;;;;18.55;12.07;;;;;;;19.28;100.00;94536.66;4989616;28;20281;-81
2022/06/25 00:52:22;;;;;;;18.42;12.20;;;;;;;19.15;100.00;94536.50;4990316;28;20250;-81
2022/06/25 00:54:58;;;;;;;20.90;11.88;;;;;;;19.06;100.00;94543.38;4985500;28;20294;-80
2022/06/25 00:57:38;;;;;;;24.58;12.50;;;;;;;19.04;100.00;94541.03;4985721;28;20211;-81
2022/06/25 01:00:14;;;;;;;23.20;11.75;;;;;;;19.04;100.00;94541.03;4990062;28;20207;-80
2022/06/25 01:02:49;;;;;;;21.38;11.82;;;;;;;19.13;100.00;94538.63;4989634;28;20682;-80
2022/06/25 01:05:26;;;;;;;19.90;11.70;;;;;;;19.18;100.00;94539.38;4985608;28;20247;-83
2022/06/25 01:07:58;;;;;;;15.88;10.75;;;;;;;19.15;100.00;94536.50;4987421;28;20230;-83
2022/06/25 01:10:27;;;;;;;13.98;10.40;;;;;;;19.16;100.00;94543.34;4988149;28;20564;-83
2022/06/25 01:13:03;;;;;;;21.08;11.15;;;;;;;19.17;100.00;94539.63;4988181;28;21244;-84
2022/06/25 01:15:36;;;;;;;22.35;11.40;;;;;;;19.25;100.00;94541.69;4990862;28;20298;-84
2022/06/25 01:18:13;;;;;;;16.08;9.68;;;;;;;19.10;100.00;94531.25;4989192;28;20224;-84
2022/06/25 01:20:43;;;;;;;24.02;9.27;;;;;;;19.06;100.00;94536.28;4991602;28;20299;-84
2022/06/25 01:23:20;;;;;;;15.15;9.00;;;;;;;19.03;100.00;94536.81;4989160;28;20226;-84
2022/06/25 01:25:52;;;;;;;14.65;8.93;;;;;;;19.13;100.00;94528.06;4988719;28;20191;-84
2022/06/25 01:28:27;;;;;;;14.90;8.57;;;;;;;19.21;100.00;94541.47;4989368;28;20200;-83
2022/06/25 01:30:58;;;;;;;13.75;8.38;;;;;;;19.28;100.00;94539.28;4988621;28;20211;-83
2022/06/25 01:33:31;;;;;;;16.48;8.57;;;;;;;19.20;100.00;94541.72;4992419;28;20200;-83
2022/06/25 01:36:03;;;;;;;15.80;8.07;;;;;;;19.09;100.00;94537.56;4989358;28;20207;-83
2022/06/25 01:38:38;;;;;;;11.73;7.70;;;;;;;18.94;100.00;94537.66;4984338;28;20236;-83
2022/06/25 01:41:11;;;;;;;11.05;7.53;;;;;;;18.97;100.00;94537.13;4989560;28;20210;-83
2022/06/25 01:43:48;;;;;;;9.98;7.53;;;;;;;18.87;100.00;94539.81;4986637;28;20204;-83
2022/06/25 01:46:22;;;;;;;11.43;7.22;;;;;;;18.77;100.00;94545.13;4983151;28;20214;-83
2022/06/25 01:48:57;;;;;;;11.20;7.35;;;;;;;18.62;100.00;94540.72;4987396;28;20674;-84
2022/06/25 01:51:32;;;;;;;12.23;6.78;;;;;;;18.51;100.00;94537.34;4988603;28;20444;-84
2022/06/25 01:54:11;;;;;;;13.27;6.88;;;;;;;18.48;100.00;94543.16;4986604;28;20991;-84
2022/06/25 01:56:41;;;;;;;18.33;6.82;;;;;;;18.57;100.00;94546.81;4988542;28;20250;-82
2022/06/25 01:59:18;;;;;;;8.65;7.10;;;;;;;18.61;100.00;94545.19;4992199;28;20309;-82
2022/06/25 02:01:48;;;;;;;9.32;6.82;;;;;;;18.70;100.00;94546.22;4992344;28;20200;-83
2022/06/25 02:04:26;;;;;;;8.73;6.68;;;;;;;18.70;100.00;94553.31;4992131;28;20203;-85
2022/06/25 02:07:04;;;;;;;9.60;7.03;;;;;;;18.71;100.00;94570.69;4987810;28;20204;-86
2022/06/25 02:09:40;;;;;;;8.07;6.65;;;;;;;18.78;100.00;94573.06;4988757;28;20211;-84
2022/06/25 02:12:16;;;;;;;10.93;7.80;;;;;;;18.74;100.00;94578.06;4987012;28;21076;-84
2022/06/25 02:14:52;;;;;;;13.55;7.22;;;;;;;18.74;100.00;94564.09;4985778;28;20298;-84
2022/06/25 02:17:26;;;;;;;14.00;7.47;;;;;;;18.77;100.00;94553.81;4987103;28;20200;-84
2022/06/25 02:20:00;;;;;;;9.02;7.03;;;;;;;18.78;100.00;94546.72;4986355;28;20329;-85
2022/06/25 02:22:33;;;;;;;9.00;6.95;;;;;;;18.74;100.00;94556.19;4990005;28;20224;-84
2022/06/25 02:25:13;;;;;;;14.02;7.00;;;;;;;18.76;100.00;94556.75;4987588;28;20219;-85
2022/06/25 02:27:49;;;;;;;14.93;7.05;;;;;;;18.78;100.00;94558.03;4987517;28;20207;-84
2022/06/25 02:30:22;;;;;;;10.68;6.82;;;;;;;18.79;100.00;94554.34;4988295;28;20199;-85
2022/06/25 02:32:58;;;;;;;9.93;6.97;;;;;;;18.82;100.00;94558.25;4989749;28;20200;-85
2022/06/25 02:35:33;;;;;;;11.77;6.45;;;;;;;18.79;100.00;94566.72;4993821;28;20295;-85
2022/06/25 02:38:08;;;;;;;10.00;7.20;;;;;;;18.93;100.00;94565.09;4990996;28;20203;-85
2022/06/25 02:40:46;;;;;;;8.00;6.80;;;;;;;18.96;100.00;94588.25;4992041;28;20257;-85
2022/06/25 02:43:20;;;;;;;11.40;7.20;;;;;;;18.97;100.00;94577.44;4990920;28;20208;-83
2022/06/25 02:45:52;;;;;;;8.65;6.88;;;;;;;18.93;100.00;94576.38;4990135;28;20207;-83
2022/06/25 02:48:29;;;;;;;9.02;6.90;;;;;;;18.90;100.00;94566.41;4991867;28;20226;-83
2022/06/25 02:51:04;;;;;;;11.93;7.55;;;;;;;18.87;100.00;94571.44;4993084;28;20199;-83
2022/06/25 02:53:52;;;;;;;13.88;8.13;;;;;;;18.76;100.00;94565.41;4994098;28;20593;-85
2022/06/25 02:59:15;;;;;;;12.27;7.57;;;;;;;18.67;100.00;94567.03;4989701;28;20925;-86
2022/06/25 03:01:48;;;;;;;14.73;7.85;;;;;;;18.63;100.00;94555.47;4995032;28;20218;-84
2022/06/25 03:04:25;;;;;;;13.90;7.90;;;;;;;18.36;100.00;94544.47;4988854;28;20299;-85
2022/06/25 03:07:07;;;;;;;12.43;8.02;;;;;;;18.40;100.00;94569.22;4989694;28;20243;-85
2022/06/25 03:09:41;;;;;;;13.45;8.48;;;;;;;18.47;100.00;94567.09;4990012;28;20224;-84
2022/06/25 03:12:15;;;;;;;10.80;7.70;;;;;;;18.50;100.00;94567.34;4988584;28;20196;-85
2022/06/25 03:14:48;;;;;;;11.45;8.48;;;;;;;18.57;100.00;94567.06;4990926;28;20214;-84
2022/06/25 03:17:21;;;;;;;14.40;8.63;;;;;;;18.70;100.00;94572.53;4992464;28;20231;-84
2022/06/25 03:20:03;;;;;;;16.97;8.80;;;;;;;18.64;100.00;94584.16;4973253;28;20661;-84
2022/06/25 03:22:37;;;;;;;12.52;8.70;;;;;;;18.65;100.00;94569.94;4989562;28;20218;-84
2022/06/25 03:25:09;;;;;;;11.93;8.40;;;;;;;18.74;100.00;94567.53;4989884;28;21630;-83
2022/06/25 03:27:44;;;;;;;16.02;8.18;;;;;;;18.84;100.00;94572.75;4989613;28;20291;-84
2022/06/25 03:30:18;;;;;;;15.73;8.68;;;;;;;18.81;100.00;94570.66;4993776;28;20203;-82
2022/06/25 03:32:50;;;;;;;11.05;7.85;;;;;;;18.87;100.00;94564.31;4989828;28;20254;-82
2022/06/25 03:35:27;;;;;;;11.35;8.15;;;;;;;18.99;100.00;94561.38;4993754;28;20198;-80
2022/06/25 03:38:00;;;;;;;10.88;8.38;;;;;;;18.97;100.00;94566.09;4988417;28;20204;-81
2022/06/25 03:40:34;;;;;;;14.05;8.55;;;;;;;19.00;100.00;94573.47;4992496;28;20220;-80
2022/06/25 03:43:12;;;;;;;15.70;8.25;;;;;;;19.02;100.00;94573.97;4991433;28;20216;-82
2022/06/25 03:45:47;;;;;;;15.85;8.52;;;;;;;19.13;100.00;94568.38;4993964;28;20223;-82
2022/06/25 03:48:19;;;;;;;11.85;8.52;;;;;;;19.21;100.00;94564.38;4988707;28;20991;-80
2022/06/25 03:50:58;;;;;;;15.73;8.77;;;;;;;19.24;100.00;94558.56;4990985;28;20267;-80
2022/06/25 03:53:32;;;;;;;14.13;8.80;;;;;;;19.21;100.00;94553.84;4992834;28;20208;-81
2022/06/25 03:56:05;;;;;;;11.77;8.73;;;;;;;19.30;100.00;94557.47;4992135;28;20222;-82
2022/06/25 03:58:40;;;;;;;15.18;9.30;;;;;;;19.15;100.00;94547.03;4998246;28;20290;-82
2022/06/25 04:01:15;;;;;;;13.48;9.18;;;;;;;18.99;100.00;94543.69;4992925;28;20196;-82
2022/06/25 04:03:47;;;;;;;14.57;8.65;;;;;;;18.98;100.00;94538.72;4989032;28;20199;-82
2022/06/25 04:06:23;;;;;;;16.05;8.75;;;;;;;19.03;100.00;94547.38;4991059;28;20673;-80
2022/06/25 04:08:55;;;;;;;10.75;8.15;;;;;;;19.21;100.00;94559.13;4987855;28;20211;-80
2022/06/25 04:11:34;;;;;;;12.70;8.23;;;;;;;19.39;100.00;94581.44;4990141;28;20274;-80
2022/06/25 04:14:13;;;;;;;13.90;7.85;;;;;;;19.50;100.00;94575.81;4989863;28;20215;-80
2022/06/25 04:16:47;;;;;;;11.75;7.38;;;;;;;19.63;100.00;94575.19;4989587;28;20326;-80
2022/06/25 04:19:20;;;;;;;15.18;8.60;;;;;;;19.67;100.00;94573.56;4982640;28;20606;-80
2022/06/25 04:21:53;;;;;;;17.33;7.97;;;;;;;19.65;100.00;94567.00;4985754;28;20211;-83
2022/06/25 04:24:26;;;;;;;13.80;8.75;;;;;;;19.75;100.00;94570.34;4989210;28;20204;-83
2022/06/25 04:26:59;;;;;;;15.32;10.13;;;;;;;19.72;100.00;94583.28;4990058;28;20223;-83
2022/06/25 04:29:32;;;;;;;23.58;11.82;;;;;;;19.62;100.00;94554.38;4986033;28;20264;-83
2022/06/25 04:32:04;;;;;;;28.38;12.05;;;;;;;19.81;100.00;94573.72;4988252;28;20211;-84
2022/06/25 04:34:36;;;;;;;21.67;11.70;;;;;;;19.72;100.00;94568.25;4988788;28;20212;-79
2022/06/25 04:37:15;;;;;;;25.02;11.60;;;;;;;19.81;100.00;94568.44;4990558;28;20218;-80
2022/06/25 04:39:47;;;;;;;16.55;11.20;;;;;;;19.88;100.00;94579.47;4994232;28;20223;-80
2022/06/25 04:42:21;;;;;;;21.38;12.18;;;;;;;19.82;100.00;94593.75;4992056;28;20278;-80
2022/06/25 04:44:54;;;;;;;21.38;11.75;;;;;;;19.80;100.00;94594.03;4988894;28;20223;-80
2022/06/25 04:47:29;;;;;;;13.82;10.32;;;;;;;19.88;100.00;94594.50;4989223;28;20212;-81
2022/06/25 04:50:05;;;;;;;24.90;10.50;;;;;;;19.89;100.00;94588.94;4984424;28;20322;-79
2022/06/25 04:52:38;;;;;;;17.33;10.90;;;;;;;19.87;100.00;94577.09;4991574;28;20219;-80
2022/06/25 04:55:14;;;;;;;16.65;10.00;;;;;;;19.98;100.00;94587.28;4997406;28;20207;-80
2022/06/25 04:57:50;;;;;;;13.93;9.80;;;;;;;19.93;100.00;94574.16;4993182;28;20210;-80
2022/06/25 05:00:25;;;;;;;14.88;10.00;;;;;;;20.04;99.99;94591.44;4986533;28;20259;-81
2022/06/25 05:02:57;;;;;;;12.40;9.95;;;;;;;19.98;100.00;94592.56;4985561;28;20219;-82
2022/06/25 05:05:33;;;;;;;18.67;11.05;;;;;;;19.77;100.00;94591.94;4988016;28;20323;-82
2022/06/25 05:08:13;;;;;;;15.63;10.13;;;;;;;19.82;100.00;94596.41;4993629;28;20203;-82
2022/06/25 05:10:47;;;;;;;16.60;9.57;;;;;;;19.72;99.88;94594.63;4987480;28;20295;-82
2022/06/25 05:13:18;;;;;;;12.00;9.18;;;;;;;19.68;99.67;94600.75;4990885;28;20722;-84
2022/06/25 05:15:56;;;;;;;12.18;9.57;;;;;;;19.76;99.50;94600.16;4986299;28;20306;-81
2022/06/25 05:18:32;;;;;;;15.05;9.73;;;;;;;19.68;100.00;94593.59;4989592;28;20251;-81
2022/06/25 05:21:01;;;;;;;15.05;10.32;;;;;;;19.73;100.00;94595.41;4991294;28;20592;-82
2022/06/25 05:23:35;;;;;;;14.73;10.57;;;;;;;19.70;100.00;94580.16;4986392;28;20216;-80
2022/06/25 05:26:08;;;;;;;16.15;10.07;;;;;;;19.88;100.00;94597.94;4988238;28;20216;-80
2022/06/25 05:28:43;;;;;;;11.85;9.43;;;;;;;19.95;100.00;94606.31;4988156;28;20219;-80
2022/06/25 05:31:22;;;;;;;11.43;9.32;;;;;;;20.04;100.00;94601.22;4987364;28;20196;-80
2022/06/25 05:33:55;;;;;;;17.10;10.10;;;;;;;20.04;100.00;94595.94;4986331;28;20204;-81
2022/06/25 05:36:31;;;;;;;12.85;9.52;;;;;;;20.05;100.00;94592.25;4994699;28;20200;-81
2022/06/25 05:39:05;;;;;;;18.85;10.52;;;;;;;20.07;100.00;94598.03;4988518;28;20264;-81
2022/06/25 05:41:37;;;;;;;21.60;10.38;;;;;;;20.15;100.00;94598.19;4989973;28;20306;-81
2022/06/25 05:44:12;;;;;;;17.33;9.95;;;;;;;20.31;98.77;94598.88;4988479;28;20254;-81
2022/06/25 05:46:46;;;;;;;13.95;9.90;;;;;;;20.44;98.09;94600.06;4993981;28;20207;-80
2022/06/25 05:49:18;;;;;;;15.55;9.82;;;;;;;20.51;98.72;94600.53;4988796;28;20204;-80
2022/06/25 05:51:52;;;;;;;18.58;10.50;;;;;;;20.50;98.16;94606.88;4985908;28;20699;-80
2022/06/25 05:54:25;;;;;;;20.45;10.15;;;;;;;20.48;98.34;94596.59;4983944;28;20211;-85
2022/06/25 05:56:59;;;;;;;15.90;10.30;;;;;;;20.48;99.96;94596.59;4981979;28;20270;-86
2022/06/25 05:59:31;;;;;;;16.42;10.52;;;;;;;20.53;100.00;94608.94;4986088;28;20207;-82
2022/06/25 06:02:08;;;;;;;15.07;10.25;;;;;;;20.52;99.06;94604.75;4983940;28;20222;-82
2022/06/25 06:04:46;;;;;;;12.63;9.82;;;;;;;20.50;100.00;94601.59;4989308;28;20402;-83
2022/06/25 06:07:16;;;;;;;15.65;11.40;;;;;;;20.58;100.00;94599.13;4984565;28;20286;-81
2022/06/25 06:09:51;;;;;;;17.50;10.35;;;;;;;20.63;98.66;94596.44;4994762;28;20195;-83
2022/06/25 06:12:22;;;;;;;17.05;10.30;;;;;;;20.70;98.18;94596.06;4988345;28;20211;-81
2022/06/25 06:14:54;;;;;;;11.73;9.77;;;;;;;20.75;96.48;94602.09;4999054;28;20281;-82
2022/06/25 06:17:27;;;;;;;16.83;11.02;;;;;;;20.76;96.96;94602.88;4990665;28;20203;-80
2022/06/25 06:19:58;;;;;;;16.02;10.82;;;;;;;20.90;95.45;94603.75;4990187;28;21252;-80
2022/06/25 06:22:33;;;;;;;18.85;10.90;;;;;;;20.94;95.56;94610.06;4988926;28;20200;-81
2022/06/25 06:25:08;;;;;;;14.68;10.52;;;;;;;21.04;94.00;94602.00;4994066;28;20862;-81
2022/06/25 06:27:40;;;;;;;15.20;10.43;;;;;;;21.04;92.87;94606.50;4991903;28;20687;-81
2022/06/25 06:30:11;;;;;;;12.55;9.98;;;;;;;21.07;90.95;94603.31;4993358;28;20188;-82
2022/06/25 06:32:50;;;;;;;13.77;10.52;;;;;;;20.92;88.60;94585.78;4988134;28;20227;-82
2022/06/25 06:35:20;;;;;;;15.98;9.77;;;;;;;21.02;89.11;94598.84;4984690;28;20207;-81
2022/06/25 06:37:54;;;;;;;15.73;9.88;;;;;;;21.03;89.72;94605.72;4982350;28;20216;-80
2022/06/25 06:40:22;;;;;;;13.73;9.48;;;;;;;21.10;89.83;94598.25;4984341;28;20220;-78
2022/06/25 06:42:55;;;;;;;11.95;8.73;;;;;;;21.14;88.00;94601.13;4987213;28;20192;-78
2022/06/25 06:45:27;;;;;;;14.27;8.77;;;;;;;21.17;88.21;94597.91;4985870;28;20201;-82
2022/06/25 06:48:04;;;;;;;12.43;9.15;;;;;;;21.20;88.87;94598.13;4988571;28;20211;-84
2022/06/25 06:50:39;;;;;;;14.45;9.35;;;;;;;21.29;87.80;94596.41;4987001;28;20196;-79
2022/06/25 06:53:10;;;;;;;17.42;8.90;;;;;;;21.37;87.37;94609.00;4991893;28;20202;-80
2022/06/25 06:55:45;;;;;;;15.88;8.73;;;;;;;21.41;87.59;94612.63;4992076;28;20250;-78
2022/06/25 06:58:15;;;;;;;13.38;8.38;;;;;;;21.38;85.07;94605.28;4984095;28;20198;-82
2022/06/25 07:00:43;;;;;;;18.13;9.43;;;;;;;21.46;85.18;94611.78;4996222;28;20227;-79
2022/06/25 07:03:15;;;;;;;12.65;9.05;;;;;;;21.56;84.43;94610.84;4991531;28;20258;-80
2022/06/25 07:05:52;;;;;;;19.15;9.52;;;;;;;21.62;83.79;94610.47;4993980;28;20323;-80
2022/06/25 07:08:24;;;;;;;18.13;8.50;;;;;;;21.61;84.02;94603.63;4993927;28;20203;-80
2022/06/25 07:10:54;;;;;;;14.73;8.82;;;;;;;21.65;83.74;94591.38;4985863;28;20687;-77
2022/06/25 07:13:30;;;;;;;14.38;8.93;;;;;;;21.76;83.01;94595.44;4990175;28;20636;-83
2022/06/25 07:16:08;;;;;;;13.55;9.82;;;;;;;21.89;82.67;94597.38;4989798;28;21243;-80
2022/06/25 07:18:45;;;;;;;14.25;8.75;;;;;;;21.94;82.15;94594.66;4989770;28;20332;-82
2022/06/25 07:21:20;;;;;;;14.20;9.50;;;;;;;22.04;82.26;94597.16;4992652;28;20219;-82
2022/06/25 07:23:52;;;;;;;15.27;9.43;;;;;;;22.12;82.86;94597.53;4990088;28;20231;-82
2022/06/25 07:26:26;;;;;;;13.38;9.45;;;;;;;22.42;80.34;94589.81;4991836;28;20211;-83
2022/06/25 07:28:59;;;;;;;14.75;8.45;;;;;;;22.63;79.39;94594.78;4989214;28;20269;-83
2022/06/25 07:31:34;;;;;;;14.00;8.40;;;;;;;22.80;79.47;94597.66;4990213;28;20204;-83
2022/06/25 07:34:10;;;;;;;13.75;9.38;;;;;;;22.85;76.47;94600.19;4995975;28;20204;-82
2022/06/25 07:36:44;;;;;;;16.92;9.32;;;;;;;22.73;77.47;94602.53;4993462;28;20199;-83
2022/06/25 07:39:16;;;;;;;13.63;9.02;;;;;;;22.78;76.84;94605.88;4990802;28;20196;-83
2022/06/25 07:41:50;;;;;;;18.45;9.40;;;;;;;22.83;77.22;94605.78;4988552;28;20303;-82
2022/06/25 07:44:25;;;;;;;16.38;9.07;;;;;;;22.84;77.39;94603.91;4990757;28;20293;-83
2022/06/25 07:46:58;;;;;;;12.50;9.27;;;;;;;22.91;75.57;94612.28;4988907;28;20211;-82
2022/06/25 07:51:56;;;;;;;15.73;8.82;;;;;;;23.04;76.24;94611.47;4988849;28;20204;-82
2022/06/25 07:52:26;;;;;;;12.20;9.13;;;;;;;23.17;74.94;94602.72;4989731;28;20355;-83
2022/06/25 07:54:57;;;;;;;15.93;8.77;;;;;;;23.29;75.07;94596.91;4989995;28;20283;-82
2022/06/25 07:57:25;;;;;;;12.40;8.95;;;;;;;23.39;74.99;94607.31;4990479;28;20200;-82
2022/06/25 07:59:59;;;;;;;17.13;8.70;;;;;;;23.43;75.29;94595.81;4993359;28;20199;-82
2022/06/25 08:02:31;;;;;;;12.05;8.98;;;;;;;23.70;74.23;94605.53;4994101;28;20203;-77
2022/06/25 08:05:09;;;;;;;12.45;8.85;;;;;;;23.85;74.43;94613.16;4989317;28;20242;-77
2022/06/25 08:07:40;;;;;;;14.68;8.85;;;;;;;24.07;73.32;94610.47;4992513;28;20294;-77
2022/06/25 08:10:14;;;;;;;15.40;9.02;;;;;;;24.24;73.71;94607.94;4992745;28;20278;-78
2022/06/25 08:12:46;;;;;;;13.27;8.52;;;;;;;24.24;71.56;94613.25;4987819;28;20208;-78
2022/06/25 08:15:26;;;;;;;8.23;6.22;;;;;;;24.34;72.27;94596.28;4991929;28;20211;-82
2022/06/25 08:18:00;;;;;;;11.68;6.65;;;;;;;24.47;71.18;94599.97;4988751;28;20203;-77
2022/06/25 08:20:37;;;;;;;11.43;8.23;;;;;;;24.44;69.35;94601.34;4988230;28;20227;-74
2022/06/25 08:23:07;;;;;;;14.43;8.18;;;;;;;24.56;69.31;94595.47;4989294;28;20244;-81
2022/06/25 08:25:42;;;;;;;13.50;8.32;;;;;;;24.49;71.53;94597.78;4987952;28;20263;-75
2022/06/25 08:28:16;;;;;;;16.00;8.52;;;;;;;24.52;71.26;94605.94;4988150;28;20199;-80
2022/06/25 08:30:52;;;;;;;13.68;8.85;;;;;;;24.49;71.47;94595.91;4993325;28;20663;-82
2022/06/25 08:33:30;;;;;;;15.50;9.30;;;;;;;24.53;71.20;94596.84;4988835;28;20204;-82
2022/06/25 08:36:10;;;;;;;11.45;8.05;;;;;;;24.61;70.56;94593.47;4988235;28;20678;-84
2022/06/25 08:38:49;;;;;;;12.63;8.00;;;;;;;24.68;69.65;94593.78;4986017;28;20745;-74
2022/06/25 08:41:24;;;;;;;13.05;8.02;;;;;;;24.74;69.48;94595.22;4990426;28;20216;-78
2022/06/25 08:43:56;;;;;;;12.18;8.50;;;;;;;24.75;69.01;94598.66;4991989;28;20211;-79
2022/06/25 08:46:29;;;;;;;13.30;8.10;;;;;;;24.75;68.69;94606.63;4989414;28;20294;-79
2022/06/25 08:48:59;;;;;;;14.18;8.55;;;;;;;24.82;69.47;94599.00;4988121;28;20199;-79
2022/06/25 08:51:36;;;;;;;13.80;8.60;;;;;;;24.95;69.44;94608.78;4988955;28;20200;-79
2022/06/25 08:54:13;;;;;;;13.05;9.07;;;;;;;25.09;68.41;94605.97;4989240;28;20690;-80
2022/06/25 08:56:48;;;;;;;14.43;8.75;;;;;;;25.18;68.21;94606.78;4987762;28;20600;-80
2022/06/25 08:59:25;;;;;;;21.00;8.95;;;;;;;25.30;66.93;94605.09;4990842;28;20209;-81
2022/06/25 09:01:56;;;;;;;16.73;9.30;;;;;;;25.46;65.91;94607.28;4989483;28;20256;-80
2022/06/25 09:04:33;;;;;;;14.50;9.48;;;;;;;25.45;66.30;94606.53;4993785;28;20199;-79
2022/06/25 09:07:22;;;;;;;17.20;8.60;;;;;;;25.62;65.10;94611.09;4972309;28;20655;-80
2022/06/25 09:09:57;;;;;;;15.75;8.77;;;;;;;25.67;66.45;94613.59;4973058;28;20973;-79
2022/06/25 09:12:34;;;;;;;13.00;8.95;;;;;;;25.75;67.60;94621.59;4968721;28;20239;-79
2022/06/25 09:15:20;;;;;;;13.75;9.00;;;;;;;26.13;66.37;94618.28;4971242;28;20212;-80
2022/06/25 09:17:55;;;;;;;17.02;8.70;;;;;;;26.23;64.09;94602.00;4967740;28;20586;-79
2022/06/25 09:20:30;;;;;;;15.43;8.98;;;;;;;26.42;63.07;94607.72;4969198;28;20212;-80
2022/06/25 09:23:11;;;;;;;24.95;11.13;;;;;;;26.47;63.94;94613.69;4974600;28;20290;-80
2022/06/25 09:25:43;;;;;;;14.45;8.90;;;;;;;26.62;63.99;94617.72;4972978;28;20236;-80
2022/06/25 09:28:39;;;;;;;13.93;9.25;;;;;;;26.78;62.41;94620.66;4974968;28;20262;-79
2022/06/25 09:31:12;;;;;;;19.85;10.20;;;;;;;26.76;60.32;94615.63;4969195;28;20235;-79
2022/06/25 09:33:58;;;;;;;19.42;12.95;;;;;;;26.69;61.00;94618.00;4965845;28;20215;-80
2022/06/25 09:36:30;;;;;;;17.73;9.93;;;;;;;26.84;61.71;94612.16;4967842;28;20671;-80
2022/06/25 09:39:09;;;;;;;12.38;8.57;;;;;;;27.03;60.30;94622.44;4973619;28;20218;-79
2022/06/25 09:41:57;;;;;;;14.23;8.82;;;;;;;27.11;60.80;94620.81;4969189;28;20726;-79
2022/06/25 09:44:30;;;;;;;18.13;9.10;;;;;;;27.23;59.59;94619.03;4968445;28;20205;-79
2022/06/25 09:47:11;;;;;;;16.15;8.80;;;;;;;27.18;59.90;94607.75;4970892;28;20200;-81
2022/06/25 09:49:48;;;;;;;14.07;9.35;;;;;;;27.01;59.70;94604.06;4971397;28;20204;-80
2022/06/25 09:52:26;;;;;;;13.82;8.98;;;;;;;27.09;59.44;94602.47;4976845;28;20211;-84
2022/06/25 09:55:07;;;;;;;17.25;9.43;;;;;;;27.09;59.63;94597.13;4968127;28;20211;-82
2022/06/25 09:57:41;;;;;;;15.80;9.52;;;;;;;27.25;60.84;94608.81;4971517;28;20299;-81
2022/06/25 10:00:18;;;;;;;20.52;9.10;;;;;;;27.52;60.22;94607.56;4972659;28;20205;-84
2022/06/25 10:02:49;;;;;;;13.60;8.95;;;;;;;27.67;58.94;94590.16;4969714;28;20318;-81
2022/06/25 10:05:32;;;;;;;18.98;9.23;;;;;;;27.83;59.62;94604.47;4975668;28;20224;-82
2022/06/25 10:08:10;;;;;;;16.23;8.27;;;;;;;27.91;56.76;94603.63;4988311;28;20244;-81
2022/06/25 10:10:51;;;;;;;16.83;8.48;;;;;;;27.94;56.58;94597.63;4991791;28;20801;-83
2022/06/25 10:13:28;;;;;;;17.05;9.05;;;;;;;28.03;56.64;94596.47;4992134;28;20273;-84
2022/06/25 10:16:04;;;;;;;12.23;8.32;;;;;;;28.15;57.15;94599.19;4992033;28;20543;-84
2022/06/25 10:18:39;;;;;;;12.82;8.40;;;;;;;28.30;57.13;94589.78;4991934;28;20231;-85
2022/06/25 10:21:12;;;;;;;13.90;8.05;;;;;;;28.59;56.66;94602.19;4988128;28;20210;-86
2022/06/25 10:23:53;;;;;;;17.98;8.10;;;;;;;28.62;54.75;94596.19;4990005;28;20559;-85
2022/06/25 10:26:27;;;;;;;17.30;8.55;;;;;;;28.70;53.72;94590.75;4989086;28;20208;-84
2022/06/25 10:29:05;;;;;;;18.00;8.20;;;;;;;28.80;52.91;94586.88;4991299;28;20192;-84
2022/06/25 10:31:39;;;;;;;16.02;7.82;;;;;;;28.82;53.50;94576.59;4992203;28;20549;-85
2022/06/25 10:34:18;;;;;;;18.70;8.40;;;;;;;28.92;52.00;94573.47;4994965;28;20569;-84
2022/06/25 10:36:58;;;;;;;17.42;7.97;;;;;;;29.10;51.94;94579.38;4994211;28;20285;-84
2022/06/25 10:39:47;;;;;;;16.73;8.07;;;;;;;29.18;51.59;94578.47;4992125;28;20584;-84
2022/06/25 10:45:51;;;;;;;15.85;8.02;;;;;;;29.17;52.16;94564.31;4999583;28;20323;-84
2022/06/25 10:48:30;;;;;;;12.38;7.47;;;;;;;29.28;52.46;94570.03;4991366;28;20220;-85
2022/06/25 10:51:07;;;;;;;15.50;8.25;;;;;;;29.36;50.27;94577.13;4992267;28;20259;-85
2022/06/25 10:53:44;;;;;;;16.63;8.10;;;;;;;29.39;51.34;94570.31;4993796;28;20215;-85
2022/06/25 10:56:23;;;;;;;17.20;8.23;;;;;;;29.38;51.72;94563.41;4997329;28;20663;-85
2022/06/25 10:58:58;;;;;;;14.27;7.70;;;;;;;29.51;51.01;94551.53;4995937;28;20204;-85
2022/06/25 11:01:31;;;;;;;19.80;7.50;;;;;;;29.69;50.45;94567.03;4993945;28;20223;-78
2022/06/25 11:04:03;;;;;;;16.08;7.68;;;;;;;29.99;51.39;94547.91;4995521;28;20200;-85
2022/06/25 11:06:35;;;;;;;12.95;8.30;;;;;;;30.41;51.06;94559.03;4998585;28;21309;-84
2022/06/25 11:09:16;;;;;;;20.33;8.10;;;;;;;30.74;48.96;94554.06;4998404;28;20555;-85
2022/06/25 11:11:49;;;;;;;14.20;7.70;;;;;;;30.89;49.65;94554.06;4994618;28;20195;-83
2022/06/25 11:14:28;;;;;;;17.63;7.53;;;;;;;31.18;48.96;94558.22;4996048;28;20195;-84
2022/06/25 11:16:58;;;;;;;19.40;7.57;;;;;;;31.44;47.13;94554.94;4991144;28;20556;-84
2022/06/25 11:19:32;;;;;;;15.20;7.57;;;;;;;31.67;47.40;94550.47;4992120;28;20215;-83
2022/06/25 11:22:09;;;;;;;17.38;7.40;;;;;;;31.78;47.37;94546.06;4992035;28;20234;-84
2022/06/25 11:28:47;;;;;;;16.60;7.78;;;;;;;31.91;47.07;94544.00;4993677;28;20253;-83
2022/06/25 11:30:23;;;;;;;18.08;7.38;;;;;;;31.15;46.23;94532.06;4990805;28;20935;-79
2022/06/25 11:32:59;;;;;;;16.00;7.80;;;;;;;30.72;47.28;94503.44;4993150;28;20279;-83
2022/06/25 11:35:44;;;;;;;21.48;8.27;;;;;;;30.95;47.05;94518.91;4992387;28;20208;-82
2022/06/25 11:38:24;;;;;;;18.10;7.53;;;;;;;30.90;48.46;94515.38;4993995;28;20215;-82
2022/06/25 11:40:54;;;;;;;18.92;7.95;;;;;;;30.95;47.97;94514.34;4995608;28;20206;-82
2022/06/25 11:43:23;;;;;;;22.58;7.82;;;;;;;31.26;48.23;94524.22;4985647;28;20283;-83
2022/06/25 11:46:00;;;;;;;26.33;7.32;;;;;;;31.51;45.96;94519.41;4993733;28;20198;-82
2022/06/25 11:48:33;;;;;;;20.45;7.15;;;;;;;31.62;46.04;94521.16;4987687;28;20262;-84
2022/06/25 11:51:10;;;;;;;15.27;6.55;;;;;;;31.71;43.80;94516.38;4993348;28;20295;-83
2022/06/25 11:53:47;;;;;;;23.40;7.07;;;;;;;31.86;44.82;94512.78;4991826;28;20188;-82
2022/06/25 11:56:27;;;;;;;15.90;6.80;;;;;;;32.15;43.65;94516.06;4987568;28;20196;-82
2022/06/25 11:59:03;;;;;;;19.25;6.50;;;;;;;32.41;42.26;94519.56;4990796;28;20266;-82
2022/06/25 12:01:48;;;;;;;16.40;6.70;;;;;;;32.63;42.52;94501.13;4997924;28;20736;-82
2022/06/25 12:04:16;;;;;;;18.30;6.68;;;;;;;32.93;41.98;94510.06;4996094;28;20223;-82
2022/06/25 12:06:50;;;;;;;20.25;6.57;;;;;;;32.95;40.34;94499.69;4990475;28;20236;-81
2022/06/25 12:09:28;;;;;;;17.83;6.45;;;;;;;32.71;40.92;94518.94;4993131;28;20283;-82